createdAt,value
2022-09-28T00:00:40.967Z,1.85
2022-09-28T00:03:09.032Z,2.92
2022-09-28T00:05:35.592Z,2.55
2022-09-28T00:08:02.010Z,2.03
2022-09-28T00:10:28.540Z,2.83
2022-09-28T00:12:55.005Z,1.77
2022-09-28T00:15:22.374Z,1.95
2022-09-28T00:17:48.779Z,2.17
2022-09-28T00:20:15.360Z,1.73
2022-09-28T00:22:41.802Z,2.28
2022-09-28T00:25:08.817Z,2.10
2022-09-28T00:27:35.393Z,2.03
2022-09-28T00:30:01.904Z,2.22
2022-09-28T00:32:28.713Z,1.80
2022-09-28T00:34:55.154Z,2.50
2022-09-28T00:37:21.605Z,1.95
2022-09-28T00:39:48.715Z,1.90
2022-09-28T00:42:21.078Z,1.95
2022-09-28T00:44:52.042Z,2.22
2022-09-28T00:47:37.637Z,2.20
2022-09-28T00:50:20.285Z,1.90
2022-09-28T00:53:14.491Z,2.00
2022-09-28T00:56:14.120Z,2.08
2022-09-28T00:58:45.360Z,1.98
2022-09-28T01:01:12.412Z,1.90
2022-09-28T01:03:39.907Z,1.92
2022-09-28T01:06:08.091Z,2.10
2022-09-28T01:08:35.970Z,1.90
2022-09-28T01:11:02.505Z,1.88
2022-09-28T01:13:31.863Z,2.00
2022-09-28T01:16:07.297Z,1.85
2022-09-28T01:19:15.800Z,2.67
2022-09-28T01:22:04.103Z,1.98
2022-09-28T01:24:40.321Z,2.47
2022-09-28T01:27:12.824Z,1.60
2022-09-28T01:29:42.149Z,1.60
2022-09-28T01:32:26.377Z,2.00
2022-09-28T01:34:59.397Z,2.10
2022-09-28T01:37:39.271Z,2.53
2022-09-28T01:40:09.298Z,2.00
2022-09-28T01:42:39.484Z,1.88
2022-09-28T01:45:14.250Z,1.98
2022-09-28T01:47:41.635Z,2.08
2022-09-28T01:50:14.389Z,1.90
2022-09-28T01:52:51.629Z,2.10
2022-09-28T01:55:50.180Z,1.67
2022-09-28T01:58:28.353Z,2.03
2022-09-28T02:01:06.201Z,2.30
2022-09-28T02:03:39.916Z,1.70
2022-09-28T02:06:16.237Z,1.88
2022-09-28T02:08:50.538Z,1.90
2022-09-28T02:11:20.149Z,1.90
2022-09-28T02:14:00.962Z,2.10
2022-09-28T02:17:03.943Z,2.22
2022-09-28T02:19:32.724Z,2.28
2022-09-28T02:22:08.367Z,2.03
2022-09-28T02:24:42.624Z,3.20
2022-09-28T02:27:23.941Z,2.00
2022-09-28T02:29:50.502Z,1.92
2022-09-28T02:32:19.434Z,2.00
2022-09-28T02:34:46.329Z,2.20
2022-09-28T02:37:12.829Z,2.42
2022-09-28T02:39:39.304Z,2.30
2022-09-28T02:42:05.834Z,2.67
2022-09-28T02:44:54.124Z,2.13
2022-09-28T02:47:38.888Z,2.22
2022-09-28T02:50:51.196Z,2.40
2022-09-28T02:53:37.800Z,2.17
2022-09-28T02:56:29.993Z,2.72
2022-09-28T02:59:20.790Z,2.25
2022-09-28T03:01:50.241Z,2.20
2022-09-28T03:04:28.645Z,2.47
2022-09-28T03:07:01.688Z,3.38
2022-09-28T03:09:39.771Z,2.40
2022-09-28T03:12:16.281Z,2.60
2022-09-28T03:14:43.326Z,3.08
2022-09-28T03:17:11.134Z,2.60
2022-09-28T03:19:37.986Z,2.17
2022-09-28T03:22:04.469Z,2.00
2022-09-28T03:24:31.127Z,2.35
2022-09-28T03:26:57.558Z,2.70
2022-09-28T03:29:24.124Z,2.75
2022-09-28T03:31:57.331Z,3.10
2022-09-28T03:34:23.784Z,2.40
2022-09-28T03:36:51.131Z,2.95
2022-09-28T03:39:17.740Z,2.92
2022-09-28T03:41:44.227Z,2.20
2022-09-28T03:44:10.767Z,2.60
2022-09-28T03:46:38.324Z,2.60
2022-09-28T03:49:09.819Z,3.35
2022-09-28T03:51:36.400Z,2.55
2022-09-28T03:54:02.892Z,2.60
2022-09-28T03:56:29.687Z,3.42
2022-09-28T03:58:56.132Z,2.40
2022-09-28T04:01:22.625Z,3.22
2022-09-28T04:03:54.031Z,3.60
2022-09-28T04:06:20.836Z,2.78
2022-09-28T04:08:47.289Z,3.13
2022-09-28T04:11:13.842Z,2.70
2022-09-28T04:13:40.420Z,2.88
2022-09-28T04:16:10.802Z,4.55
2022-09-28T04:18:37.933Z,3.00
2022-09-28T04:21:07.000Z,2.90
2022-09-28T04:23:39.816Z,2.92
2022-09-28T04:26:08.891Z,3.10
2022-09-28T04:28:35.358Z,2.67
2022-09-28T04:31:01.871Z,3.28
2022-09-28T04:33:28.394Z,3.10
2022-09-28T04:35:54.930Z,3.70
2022-09-28T04:38:41.470Z,3.70
2022-09-28T04:41:08.539Z,3.25
2022-09-28T04:43:35.128Z,3.28
2022-09-28T04:46:02.588Z,3.38
2022-09-28T04:48:37.486Z,3.83
2022-09-28T04:51:34.757Z,4.72
2022-09-28T04:54:01.280Z,3.95
2022-09-28T04:56:27.829Z,3.45
2022-09-28T04:58:54.372Z,3.90
2022-09-28T05:01:22.194Z,4.47
2022-09-28T05:04:12.059Z,4.15
2022-09-28T05:06:57.015Z,4.22
2022-09-28T05:09:24.184Z,4.43
2022-09-28T05:11:52.049Z,4.28
2022-09-28T05:14:21.172Z,4.93
2022-09-28T05:16:48.757Z,4.53
2022-09-28T05:19:21.473Z,4.25
2022-09-28T05:21:50.745Z,4.80
2022-09-28T05:24:17.174Z,4.97
2022-09-28T05:26:49.343Z,4.15
2022-09-28T05:29:16.135Z,4.72
2022-09-28T05:31:48.406Z,4.90
2022-09-28T05:34:37.978Z,4.13
2022-09-28T05:37:04.716Z,4.15
2022-09-28T05:39:31.176Z,5.25
2022-09-28T05:41:57.663Z,5.18
2022-09-28T05:44:24.108Z,4.88
2022-09-28T05:46:53.328Z,5.03
2022-09-28T05:49:19.844Z,5.95
2022-09-28T05:51:47.210Z,5.10
2022-09-28T05:54:13.784Z,5.60
2022-09-28T05:56:44.484Z,5.90
2022-09-28T05:59:11.085Z,5.43
2022-09-28T06:01:37.962Z,5.45
2022-09-28T06:04:07.836Z,5.28
2022-09-28T06:06:35.235Z,5.45
2022-09-28T06:09:01.724Z,5.90
2022-09-28T06:11:31.964Z,5.07
2022-09-28T06:14:02.675Z,5.30
2022-09-28T06:16:31.027Z,6.13
2022-09-28T06:18:57.879Z,5.53
2022-09-28T06:21:48.765Z,5.95
2022-09-28T06:24:15.456Z,5.25
2022-09-28T06:26:41.937Z,6.82
2022-09-28T06:29:08.486Z,6.78
2022-09-28T06:31:35.013Z,8.10
2022-09-28T06:34:01.893Z,8.98
2022-09-28T06:36:29.270Z,6.32
2022-09-28T06:38:55.789Z,6.20
2022-09-28T06:41:23.007Z,5.78
2022-09-28T06:43:49.501Z,5.40
2022-09-28T06:46:34.450Z,5.45
2022-09-28T06:49:20.881Z,5.60
2022-09-28T06:52:12.981Z,5.68
2022-09-28T06:54:59.402Z,7.65
2022-09-28T06:57:42.970Z,5.85
2022-09-28T07:00:10.150Z,7.00
2022-09-28T07:02:37.353Z,5.00
2022-09-28T07:05:45.379Z,5.30
2022-09-28T07:08:30.157Z,5.47
2022-09-28T07:11:16.933Z,6.18
2022-09-28T07:13:51.269Z,5.65
2022-09-28T07:16:25.880Z,5.65
2022-09-28T07:18:54.564Z,5.65
2022-09-28T07:21:29.225Z,5.13
2022-09-28T07:23:58.096Z,5.00
2022-09-28T07:26:24.957Z,4.63
2022-09-28T07:28:57.248Z,4.35
2022-09-28T07:31:42.304Z,4.10
2022-09-28T07:34:20.525Z,3.92
2022-09-28T07:37:13.197Z,4.95
2022-09-28T07:39:39.905Z,4.13
2022-09-28T07:42:06.399Z,3.88
2022-09-28T07:44:32.911Z,4.10
2022-09-28T07:46:59.627Z,4.00
2022-09-28T07:49:44.969Z,4.13
2022-09-28T07:52:17.823Z,3.95
2022-09-28T07:55:07.526Z,3.80
2022-09-28T07:58:09.473Z,4.03
2022-09-28T08:00:45.906Z,4.65
2022-09-28T08:03:12.642Z,4.70
2022-09-28T08:05:39.263Z,4.22
2022-09-28T08:08:05.737Z,4.07
2022-09-28T08:10:33.075Z,4.28
2022-09-28T08:13:11.039Z,3.72
2022-09-28T08:15:54.534Z,4.30
2022-09-28T08:18:43.963Z,3.60
2022-09-28T08:21:10.483Z,3.28
2022-09-28T08:23:37.631Z,3.70
2022-09-28T08:26:05.342Z,3.20
2022-09-28T08:28:33.624Z,3.22
2022-09-28T08:33:30.853Z,3.60
2022-09-28T08:36:15.873Z,3.70
2022-09-28T08:39:00.964Z,3.40
2022-09-28T08:41:54.831Z,3.53
2022-09-28T08:44:39.755Z,3.88
2022-09-28T08:47:25.604Z,3.75
2022-09-28T08:50:17.711Z,3.45
2022-09-28T08:53:27.022Z,3.58
2022-09-28T08:56:14.932Z,3.17
2022-09-28T08:58:48.417Z,3.20
2022-09-28T09:01:19.115Z,4.20
2022-09-28T09:03:48.259Z,3.10
2022-09-28T09:06:52.372Z,2.92
2022-09-28T09:09:33.089Z,3.20
2022-09-28T09:12:17.948Z,3.35
2022-09-28T09:15:41.659Z,3.17
2022-09-28T09:18:32.928Z,3.60
2022-09-28T09:21:40.124Z,3.58
2022-09-28T09:24:26.100Z,2.90
2022-09-28T09:27:04.770Z,3.13
2022-09-28T09:29:45.575Z,3.90
2022-09-28T09:32:36.573Z,3.13
2022-09-28T09:35:29.000Z,3.10
2022-09-28T09:38:31.442Z,2.97
2022-09-28T09:41:50.086Z,3.05
2022-09-28T09:45:20.717Z,3.42
2022-09-28T09:48:07.460Z,2.50
2022-09-28T09:50:40.550Z,2.30
2022-09-28T09:53:20.249Z,2.33
2022-09-28T09:55:50.928Z,2.50
2022-09-28T09:58:36.353Z,2.28
2022-09-28T10:01:26.959Z,2.53
2022-09-28T10:04:24.509Z,1.70
2022-09-28T10:06:58.644Z,1.73
2022-09-28T10:09:37.926Z,1.88
2022-09-28T10:12:34.516Z,1.80
2022-09-28T10:15:05.105Z,1.77
2022-09-28T10:17:39.223Z,1.20
2022-09-28T10:20:24.472Z,1.50
2022-09-28T10:22:58.921Z,1.13
2022-09-28T10:25:26.286Z,1.40
2022-09-28T10:27:52.788Z,1.27
2022-09-28T10:30:25.037Z,1.10
2022-09-28T10:32:53.772Z,1.30
2022-09-28T10:35:24.693Z,1.15
2022-09-28T10:37:59.132Z,1.58
2022-09-28T10:40:47.686Z,1.00
2022-09-28T10:43:25.484Z,0.95
2022-09-28T10:46:05.274Z,1.27
2022-09-28T10:48:50.485Z,1.00
2022-09-28T10:51:18.611Z,1.27
2022-09-28T10:54:01.756Z,1.75
2022-09-28T10:56:52.360Z,0.65
2022-09-28T10:59:38.867Z,0.80
2022-09-28T11:02:37.188Z,0.77
2022-09-28T11:05:21.218Z,0.75
2022-09-28T11:07:48.516Z,0.70
2022-09-28T11:10:23.102Z,0.70
2022-09-28T11:12:52.191Z,0.70
2022-09-28T11:15:24.509Z,0.73
2022-09-28T11:17:52.327Z,0.70
2022-09-28T11:20:28.151Z,0.70
2022-09-28T11:23:00.920Z,0.90
2022-09-28T11:25:32.798Z,0.80
2022-09-28T11:28:02.670Z,0.52
2022-09-28T11:30:29.217Z,0.75
2022-09-28T11:33:24.534Z,1.23
2022-09-28T11:36:21.766Z,0.60
2022-09-28T11:39:13.406Z,0.80
2022-09-28T11:42:02.262Z,0.80
2022-09-28T11:44:48.865Z,0.77
2022-09-28T11:47:19.114Z,0.88
2022-09-28T11:49:53.823Z,0.70
2022-09-28T11:52:24.336Z,0.70
2022-09-28T11:55:01.876Z,0.90
2022-09-28T11:57:35.105Z,0.82
2022-09-28T12:00:06.353Z,0.93
2022-09-28T12:05:25.029Z,0.68
2022-09-28T12:08:09.448Z,0.90
2022-09-28T12:11:06.623Z,0.90
2022-09-28T12:14:21.371Z,0.90
2022-09-28T12:17:10.982Z,0.80
2022-09-28T12:20:33.092Z,0.73
2022-09-28T12:25:28.682Z,0.85
2022-09-28T12:27:55.075Z,0.70
2022-09-28T12:30:23.479Z,1.08
2022-09-28T12:32:57.144Z,0.70
2022-09-28T12:35:29.340Z,0.65
2022-09-28T12:38:27.866Z,0.82
2022-09-28T12:40:54.325Z,0.75
2022-09-28T12:43:58.475Z,0.75
2022-09-28T12:46:49.092Z,0.68
2022-09-28T12:50:37.659Z,0.47
2022-09-28T12:53:08.326Z,0.50
2022-09-28T12:55:51.809Z,0.63
2022-09-28T12:58:31.204Z,1.10
2022-09-28T13:01:06.408Z,0.75
2022-09-28T13:03:35.562Z,1.08
2022-09-28T13:06:08.119Z,0.90
2022-09-28T13:08:53.481Z,0.80
2022-09-28T13:11:32.963Z,0.57
2022-09-28T13:14:05.291Z,1.25
2022-09-28T13:16:50.834Z,0.85
2022-09-28T13:19:20.162Z,0.60
2022-09-28T13:22:20.441Z,0.50
2022-09-28T13:24:48.675Z,0.60
2022-09-28T13:27:22.263Z,0.85
2022-09-28T13:29:50.556Z,0.80
2022-09-28T13:32:18.407Z,0.52
2022-09-28T13:34:49.048Z,0.60
2022-09-28T13:37:15.424Z,0.43
2022-09-28T13:39:44.849Z,0.90
2022-09-28T13:42:24.286Z,0.57
2022-09-28T13:45:15.304Z,0.60
2022-09-28T13:47:50.944Z,0.40
2022-09-28T13:50:28.803Z,0.50
2022-09-28T13:53:07.402Z,0.50
2022-09-28T13:55:48.712Z,0.60
2022-09-28T13:58:24.183Z,0.40
2022-09-28T14:01:00.330Z,0.70
2022-09-28T14:03:41.040Z,0.50
2022-09-28T14:06:29.189Z,0.75
2022-09-28T14:08:58.598Z,0.40
2022-09-28T14:11:42.248Z,0.57
2022-09-28T14:14:08.677Z,0.55
2022-09-28T14:16:36.442Z,0.70
2022-09-28T14:19:07.098Z,0.40
2022-09-28T14:22:17.465Z,0.77
2022-09-28T14:24:56.040Z,0.70
2022-09-28T14:27:30.588Z,0.60
2022-09-28T14:30:12.464Z,0.70
2022-09-28T14:32:40.913Z,0.40
2022-09-28T14:35:30.503Z,0.50
2022-09-28T14:38:13.466Z,0.55
2022-09-28T14:40:56.375Z,0.63
2022-09-28T14:43:57.171Z,0.47
2022-09-28T14:46:30.093Z,0.30
2022-09-28T14:49:00.639Z,0.40
2022-09-28T14:51:27.084Z,0.47
2022-09-28T14:54:15.153Z,0.60
2022-09-28T14:56:53.524Z,0.75
2022-09-28T14:59:22.837Z,0.50
2022-09-28T15:01:59.146Z,0.50
2022-09-28T15:04:28.888Z,0.40
2022-09-28T15:06:55.468Z,0.60
2022-09-28T15:09:29.686Z,1.15
2022-09-28T15:12:01.090Z,0.30
2022-09-28T15:16:57.334Z,0.30
2022-09-28T15:19:32.817Z,0.30
2022-09-28T15:21:59.729Z,0.40
2022-09-28T15:24:28.349Z,0.63
2022-09-28T15:26:54.836Z,1.50
2022-09-28T15:29:21.677Z,1.35
2022-09-28T15:31:52.299Z,0.60
2022-09-28T15:34:32.768Z,0.60
2022-09-28T15:36:59.350Z,0.70
2022-09-28T15:39:32.078Z,0.68
2022-09-28T15:41:59.931Z,1.10
2022-09-28T15:44:36.863Z,1.05
2022-09-28T15:47:10.059Z,0.55
2022-09-28T15:49:38.899Z,0.68
2022-09-28T15:52:05.899Z,0.80
2022-09-28T15:54:42.116Z,0.38
2022-09-28T15:57:32.489Z,0.55
2022-09-28T16:00:00.087Z,0.47
2022-09-28T16:02:27.024Z,1.58
2022-09-28T16:04:59.278Z,0.85
2022-09-28T16:07:34.035Z,0.70
2022-09-28T16:10:12.799Z,0.60
2022-09-28T16:12:44.255Z,0.50
2022-09-28T16:17:42.855Z,0.70
2022-09-28T16:20:21.008Z,0.90
2022-09-28T16:22:47.784Z,0.50
2022-09-28T16:25:22.706Z,0.45
2022-09-28T16:27:50.892Z,0.60
2022-09-28T16:30:25.468Z,0.70
2022-09-28T16:32:59.045Z,0.65
2022-09-28T16:35:26.871Z,1.23
2022-09-28T16:38:04.196Z,0.70
2022-09-28T16:40:32.514Z,0.55
2022-09-28T16:43:02.093Z,0.60
2022-09-28T16:45:28.972Z,0.75
2022-09-28T16:47:57.221Z,0.70
2022-09-28T16:50:24.575Z,0.77
2022-09-28T16:53:00.100Z,0.60
2022-09-28T16:55:42.866Z,0.80
2022-09-28T16:58:09.409Z,0.70
2022-09-28T17:00:35.872Z,0.90
2022-09-28T17:03:02.375Z,0.90
2022-09-28T17:05:28.925Z,0.98
2022-09-28T17:08:03.864Z,1.10
2022-09-28T17:11:02.529Z,0.90
2022-09-28T17:13:30.676Z,0.90
2022-09-28T17:15:58.287Z,0.98
2022-09-28T17:18:25.098Z,1.00
2022-09-28T17:20:53.061Z,1.27
2022-09-28T17:28:19.936Z,1.10
2022-09-28T17:30:46.588Z,1.15
2022-09-28T17:33:13.247Z,1.00
2022-09-28T17:35:40.135Z,1.85
2022-09-28T17:38:06.830Z,1.10
2022-09-28T17:40:33.345Z,1.10
2022-09-28T17:42:59.874Z,1.55
2022-09-28T17:45:28.130Z,2.72
2022-09-28T17:47:55.814Z,3.85
2022-09-28T17:50:31.704Z,3.22
2022-09-28T17:52:58.739Z,3.13
2022-09-28T17:55:30.128Z,3.70
2022-09-28T17:57:57.289Z,2.92
2022-09-28T18:00:24.993Z,2.90
2022-09-28T18:02:51.678Z,2.35
2022-09-28T18:05:18.177Z,3.08
2022-09-28T18:07:47.621Z,2.67
2022-09-28T18:10:16.945Z,6.63
2022-09-28T18:12:43.466Z,7.95
2022-09-28T18:15:10.919Z,5.72
2022-09-28T18:17:38.957Z,4.43
2022-09-28T18:20:07.701Z,3.78
2022-09-28T18:22:34.235Z,4.55
2022-09-28T18:25:00.825Z,2.90
2022-09-28T18:27:31.519Z,3.80
2022-09-28T18:29:58.223Z,3.58
2022-09-28T18:32:24.772Z,3.15
2022-09-28T18:34:51.409Z,3.72
2022-09-28T18:37:18.288Z,3.30
2022-09-28T18:39:44.855Z,3.10
2022-09-28T18:42:12.354Z,3.25
2022-09-28T18:44:39.063Z,2.83
2022-09-28T18:47:05.576Z,2.63
2022-09-28T18:49:32.167Z,2.40
2022-09-28T18:51:58.599Z,2.65
2022-09-28T18:54:25.179Z,2.58
2022-09-28T18:56:55.276Z,2.65
2022-09-28T18:59:22.193Z,2.65
2022-09-28T19:01:48.884Z,2.60
2022-09-28T19:04:15.859Z,3.28
2022-09-28T19:06:42.790Z,2.95
2022-09-28T19:09:10.008Z,3.47
2022-09-28T19:11:36.634Z,3.33
2022-09-28T19:14:03.184Z,4.38
2022-09-28T19:16:31.063Z,3.55
2022-09-28T19:18:58.465Z,3.38
2022-09-28T19:21:25.675Z,2.72
2022-09-28T19:23:52.173Z,2.90
2022-09-28T19:26:21.648Z,2.30
2022-09-28T19:28:48.857Z,2.40
2022-09-28T19:31:16.064Z,2.60
2022-09-28T19:33:43.151Z,2.13
2022-09-28T19:36:12.548Z,2.10
2022-09-28T19:38:40.287Z,2.10
2022-09-28T19:41:18.209Z,2.25
2022-09-28T19:43:44.659Z,3.15
2022-09-28T19:46:11.185Z,2.58
2022-09-28T19:48:37.740Z,2.00
2022-09-28T19:51:06.105Z,1.95
2022-09-28T19:53:35.339Z,2.78
2022-09-28T19:56:02.846Z,2.38
2022-09-28T19:58:31.004Z,2.30
2022-09-28T20:00:57.449Z,2.20
2022-09-28T20:03:23.948Z,2.25
2022-09-28T20:05:56.855Z,2.20
2022-09-28T20:08:23.584Z,2.38
2022-09-28T20:10:54.092Z,2.58
2022-09-28T20:13:21.472Z,1.65
2022-09-28T20:15:48.256Z,2.53
2022-09-28T20:18:15.545Z,2.75
2022-09-28T20:20:42.261Z,2.72
2022-09-28T20:23:09.407Z,2.92
2022-09-28T20:25:35.899Z,2.70
2022-09-28T20:28:02.494Z,2.53
2022-09-28T20:30:28.914Z,2.75
2022-09-28T20:32:55.422Z,2.42
2022-09-28T20:35:32.164Z,2.78
2022-09-28T20:37:59.434Z,2.30
2022-09-28T20:40:25.917Z,2.40
2022-09-28T20:42:52.416Z,2.03
2022-09-28T20:45:18.860Z,2.10
2022-09-28T20:47:45.323Z,2.30
2022-09-28T20:50:11.775Z,1.95
2022-09-28T20:52:38.291Z,2.13
2022-09-28T20:55:05.098Z,1.85
2022-09-28T20:57:31.580Z,2.38
2022-09-28T20:59:58.016Z,2.00
2022-09-28T21:02:24.595Z,4.40
2022-09-28T21:04:51.194Z,2.38
2022-09-28T21:07:17.664Z,1.95
2022-09-28T21:09:44.090Z,2.25
2022-09-28T21:12:10.543Z,2.42
2022-09-28T21:14:36.971Z,1.90
2022-09-28T21:17:03.442Z,2.25
2022-09-28T21:19:29.820Z,2.15
2022-09-28T21:21:56.278Z,2.17
2022-09-28T21:24:22.682Z,2.00
2022-09-28T21:26:49.121Z,2.05
2022-09-28T21:29:15.590Z,2.15
2022-09-28T21:31:45.033Z,1.90
2022-09-28T21:34:19.899Z,2.05
2022-09-28T21:36:49.161Z,1.90
2022-09-28T21:39:15.619Z,2.28
2022-09-28T21:41:42.282Z,2.50
2022-09-28T21:44:09.017Z,2.05
2022-09-28T21:46:37.294Z,1.80
2022-09-28T21:49:05.608Z,2.00
2022-09-28T21:51:32.246Z,1.77
2022-09-28T21:53:58.833Z,2.22
2022-09-28T21:56:25.279Z,2.38
2022-09-28T21:58:51.749Z,2.33
2022-09-28T22:01:23.549Z,2.08
2022-09-28T22:03:52.764Z,2.30
2022-09-28T22:06:21.264Z,2.53
2022-09-28T22:08:48.820Z,2.03
2022-09-28T22:11:21.276Z,2.50
2022-09-28T22:13:56.908Z,2.35
2022-09-28T22:16:25.630Z,2.10
2022-09-28T22:18:52.534Z,2.20
2022-09-28T22:21:24.281Z,1.80
2022-09-28T22:23:51.016Z,2.28
2022-09-28T22:26:22.818Z,2.30
2022-09-28T22:28:52.340Z,2.22
2022-09-28T22:31:21.187Z,2.33
2022-09-28T22:33:48.101Z,2.22
2022-09-28T22:36:15.387Z,1.90
2022-09-28T22:38:45.795Z,2.22
2022-09-28T22:41:16.864Z,2.20
2022-09-28T22:43:43.699Z,2.10
2022-09-28T22:46:13.127Z,2.28
2022-09-28T22:48:40.192Z,1.92
2022-09-28T22:51:06.916Z,2.20
2022-09-28T22:53:34.846Z,2.00
2022-09-28T22:56:02.347Z,1.90
2022-09-28T22:58:28.808Z,2.00
2022-09-28T23:00:55.229Z,1.98
2022-09-28T23:03:21.699Z,2.20
2022-09-28T23:05:55.427Z,1.75
2022-09-28T23:08:23.404Z,2.10
2022-09-28T23:10:51.335Z,2.00
2022-09-28T23:13:18.535Z,2.03
2022-09-28T23:15:58.226Z,2.80
2022-09-28T23:18:27.581Z,1.83
2022-09-28T23:21:01.625Z,1.88
2022-09-28T23:23:28.880Z,2.20
2022-09-28T23:25:55.916Z,2.17
2022-09-28T23:28:24.936Z,2.15
2022-09-28T23:30:52.182Z,1.70
2022-09-28T23:33:20.867Z,1.83
2022-09-28T23:35:47.333Z,1.90
2022-09-28T23:38:15.744Z,2.05
2022-09-28T23:40:42.162Z,1.73
2022-09-28T23:43:08.734Z,2.10
2022-09-28T23:45:35.228Z,2.10
2022-09-28T23:48:02.229Z,2.25
2022-09-28T23:50:28.742Z,1.90
2022-09-28T23:52:55.445Z,2.03
2022-09-28T23:55:21.920Z,2.42
2022-09-28T23:57:48.329Z,2.10
